createdAt,value
2017-11-04T00:01:07.741Z,26.50
2017-11-04T00:03:37.491Z,25.73
2017-11-04T00:06:06.559Z,26.17
2017-11-04T00:08:36.265Z,27.40
2017-11-04T00:11:06.346Z,24.60
2017-11-04T00:13:36.077Z,23.37
2017-11-04T00:16:05.023Z,26.13
2017-11-04T00:18:33.960Z,23.40
2017-11-04T00:21:02.922Z,23.70
2017-11-04T00:23:32.618Z,23.23
2017-11-04T00:26:02.293Z,23.30
2017-11-04T00:28:31.658Z,23.70
2017-11-04T00:31:00.620Z,22.53
2017-11-04T00:33:29.569Z,22.10
2017-11-04T00:35:58.490Z,22.27
2017-11-04T00:38:27.550Z,22.00
2017-11-04T00:40:56.484Z,22.27
2017-11-04T00:43:25.450Z,21.67
2017-11-04T00:45:55.168Z,20.83
2017-11-04T00:48:24.121Z,21.07
2017-11-04T00:50:53.476Z,19.93
2017-11-04T00:53:22.400Z,20.20
2017-11-04T00:55:51.357Z,22.23
2017-11-04T00:58:20.678Z,19.50
2017-11-04T01:00:50.405Z,21.90
2017-11-04T01:03:19.334Z,21.77
2017-11-04T01:05:48.272Z,20.43
2017-11-04T01:08:17.223Z,19.70
2017-11-04T01:10:46.175Z,19.10
2017-11-04T01:13:16.238Z,20.30
2017-11-04T01:15:45.579Z,21.33
2017-11-04T01:18:14.505Z,20.23
2017-11-04T01:20:43.836Z,21.97
2017-11-04T01:23:13.540Z,20.93
2017-11-04T01:25:42.521Z,20.47
2017-11-04T01:28:12.978Z,21.83
2017-11-04T01:30:42.669Z,20.67
2017-11-04T01:33:11.590Z,20.73
2017-11-04T01:35:40.524Z,20.80
2017-11-04T01:38:10.252Z,19.93
2017-11-04T01:40:39.219Z,20.67
2017-11-04T01:43:08.147Z,20.20
2017-11-04T01:45:37.892Z,19.00
2017-11-04T01:48:06.853Z,20.13
2017-11-04T01:50:36.561Z,21.23
2017-11-04T01:53:06.285Z,19.93
2017-11-04T01:55:35.606Z,21.17
2017-11-04T01:58:04.705Z,21.13
2017-11-04T02:00:33.678Z,20.37
2017-11-04T02:03:02.624Z,18.40
2017-11-04T02:05:31.578Z,18.10
2017-11-04T02:08:00.501Z,20.40
2017-11-04T02:10:29.435Z,19.30
2017-11-04T02:12:58.382Z,19.00
2017-11-04T02:15:27.337Z,21.23
2017-11-04T02:17:56.271Z,19.57
2017-11-04T02:20:25.605Z,20.40
2017-11-04T02:22:54.536Z,19.13
2017-11-04T02:25:23.490Z,20.50
2017-11-04T02:27:52.439Z,19.90
2017-11-04T02:30:21.404Z,18.97
2017-11-04T02:32:50.318Z,19.27
2017-11-04T02:35:19.272Z,19.47
2017-11-04T02:37:48.210Z,19.57
2017-11-04T02:40:17.154Z,19.77
2017-11-04T02:42:46.504Z,20.90
2017-11-04T02:45:17.139Z,18.63
2017-11-04T02:47:46.136Z,18.60
2017-11-04T02:50:15.851Z,18.90
2017-11-04T02:52:46.381Z,15.67
2017-11-04T02:55:15.291Z,18.23
2017-11-04T02:57:44.214Z,18.80
2017-11-04T03:00:13.662Z,18.33
2017-11-04T03:02:42.586Z,18.43
2017-11-04T03:05:11.696Z,16.73
2017-11-04T03:07:41.429Z,18.37
2017-11-04T03:10:10.750Z,19.13
2017-11-04T03:12:40.491Z,18.37
2017-11-04T03:15:09.820Z,18.13
2017-11-04T03:17:39.547Z,16.60
2017-11-04T03:20:08.555Z,16.27
2017-11-04T03:22:37.519Z,16.30
2017-11-04T03:25:06.553Z,17.30
2017-11-04T03:27:35.510Z,16.83
2017-11-04T03:30:04.834Z,17.80
2017-11-04T03:32:34.557Z,19.70
2017-11-04T03:35:04.218Z,19.57
2017-11-04T03:37:33.175Z,17.33
2017-11-04T03:40:02.105Z,18.70
2017-11-04T03:42:31.056Z,19.73
2017-11-04T03:44:59.993Z,18.37
2017-11-04T03:47:29.706Z,18.00
2017-11-04T03:49:58.626Z,19.40
2017-11-04T03:52:27.672Z,20.60
2017-11-04T03:54:56.645Z,20.23
2017-11-04T03:57:25.571Z,22.07
2017-11-04T03:59:54.585Z,22.00
2017-11-04T04:02:23.638Z,19.90
2017-11-04T04:04:52.983Z,21.33
2017-11-04T04:07:22.710Z,21.00
2017-11-04T04:09:52.399Z,21.00
2017-11-04T04:12:22.124Z,20.90
2017-11-04T04:14:51.070Z,21.50
2017-11-04T04:17:19.995Z,23.57
2017-11-04T04:19:48.954Z,20.87
2017-11-04T04:22:18.276Z,22.43
2017-11-04T04:24:47.979Z,21.20
2017-11-04T04:27:18.379Z,22.00
2017-11-04T04:29:47.750Z,22.23
2017-11-04T04:32:16.682Z,20.60
2017-11-04T04:34:45.615Z,22.73
2017-11-04T04:37:14.569Z,22.53
2017-11-04T04:39:43.503Z,22.03
2017-11-04T04:42:12.451Z,21.27
2017-11-04T04:44:42.200Z,21.50
2017-11-04T04:47:11.150Z,22.53
2017-11-04T04:49:40.066Z,22.40
2017-11-04T04:52:09.030Z,21.60
2017-11-04T04:54:37.960Z,22.60
2017-11-04T04:57:06.895Z,20.37
2017-11-04T04:59:35.852Z,20.73
2017-11-04T05:02:05.181Z,20.53
2017-11-04T05:04:34.498Z,21.40
2017-11-04T05:07:03.447Z,20.70
2017-11-04T05:09:32.379Z,20.87
2017-11-04T05:12:01.740Z,21.73
2017-11-04T05:14:30.687Z,20.53
2017-11-04T05:17:00.375Z,21.90
2017-11-04T05:19:29.574Z,21.50
2017-11-04T05:21:58.508Z,21.50
2017-11-04T05:24:27.531Z,21.80
2017-11-04T05:26:56.448Z,21.47
2017-11-04T05:29:26.162Z,21.27
2017-11-04T05:31:55.880Z,21.57
2017-11-04T05:34:25.613Z,19.33
2017-11-04T05:36:54.943Z,19.80
2017-11-04T05:39:23.907Z,21.63
2017-11-04T05:41:52.832Z,21.03
2017-11-04T05:44:22.560Z,23.40
2017-11-04T05:46:51.576Z,21.73
2017-11-04T05:49:20.501Z,19.17
2017-11-04T05:51:49.432Z,21.80
2017-11-04T05:54:18.406Z,21.40
2017-11-04T05:56:47.327Z,21.27
2017-11-04T05:59:17.044Z,22.10
2017-11-04T06:01:46.483Z,23.10
2017-11-04T06:04:15.439Z,22.23
2017-11-04T06:06:45.136Z,20.20
2017-11-04T06:09:14.503Z,20.67
2017-11-04T06:11:44.209Z,24.83
2017-11-04T06:14:13.157Z,21.77
2017-11-04T06:16:42.481Z,23.63
2017-11-04T06:19:11.461Z,23.13
2017-11-04T06:21:40.383Z,20.23
2017-11-04T06:24:09.764Z,20.90
2017-11-04T06:26:38.691Z,22.30
2017-11-04T06:29:07.702Z,21.43
2017-11-04T06:31:36.620Z,22.10
2017-11-04T06:34:05.560Z,22.47
2017-11-04T06:36:34.502Z,21.10
2017-11-04T06:39:03.912Z,21.10
2017-11-04T06:41:33.815Z,22.30
2017-11-04T06:44:02.772Z,22.27
2017-11-04T06:46:33.225Z,22.97
2017-11-04T06:49:02.940Z,21.20
2017-11-04T06:51:32.677Z,21.33
2017-11-04T06:54:01.735Z,23.80
2017-11-04T06:56:30.663Z,23.10
2017-11-04T06:58:59.614Z,21.23
2017-11-04T07:01:29.323Z,23.30
2017-11-04T07:03:59.041Z,23.40
2017-11-04T07:06:28.776Z,22.93
2017-11-04T07:08:58.545Z,22.10
2017-11-04T07:11:28.297Z,24.00
2017-11-04T07:13:57.689Z,23.17
2017-11-04T07:16:26.588Z,24.33
2017-11-04T07:18:55.584Z,22.47
2017-11-04T07:21:25.432Z,24.47
2017-11-04T07:23:54.378Z,23.03
2017-11-04T07:26:24.701Z,24.30
2017-11-04T07:28:53.772Z,22.60
2017-11-04T07:31:22.724Z,24.50
2017-11-04T07:33:52.482Z,25.57
2017-11-04T07:36:22.184Z,25.63
2017-11-04T07:38:51.327Z,25.50
2017-11-04T07:41:20.252Z,26.17
2017-11-04T07:43:49.663Z,26.23
2017-11-04T07:46:18.616Z,25.83
2017-11-04T07:48:47.599Z,26.67
2017-11-04T07:51:18.164Z,26.00
2017-11-04T07:53:47.123Z,25.77
2017-11-04T07:56:16.096Z,27.23
2017-11-04T07:58:45.136Z,26.57
2017-11-04T08:01:14.045Z,27.83
2017-11-04T08:03:43.002Z,27.60
2017-11-04T08:06:12.115Z,24.63
2017-11-04T08:08:41.444Z,26.87
2017-11-04T08:11:10.401Z,25.13
2017-11-04T08:13:40.148Z,25.37
2017-11-04T08:16:11.109Z,26.67
2017-11-04T08:18:40.812Z,29.30
2017-11-04T08:21:10.524Z,25.03
2017-11-04T08:23:39.490Z,25.20
2017-11-04T08:26:09.176Z,26.17
2017-11-04T08:28:38.521Z,26.70
2017-11-04T08:31:07.451Z,27.87
2017-11-04T08:33:37.182Z,25.80
2017-11-04T08:36:06.859Z,26.73
2017-11-04T08:38:36.166Z,26.00
2017-11-04T08:41:05.569Z,25.97
2017-11-04T08:43:34.931Z,25.23
2017-11-04T08:46:04.624Z,25.10
2017-11-04T08:48:33.672Z,25.70
2017-11-04T08:51:03.372Z,24.00
2017-11-04T08:53:32.706Z,24.03
2017-11-04T08:56:01.641Z,24.50
2017-11-04T08:58:30.590Z,24.70
2017-11-04T09:01:00.315Z,24.47
2017-11-04T09:03:43.972Z,24.77
2017-11-04T09:06:14.502Z,22.47
2017-11-04T09:08:44.135Z,24.60
2017-11-04T09:11:14.266Z,23.10
2017-11-04T09:13:43.988Z,24.43
2017-11-04T09:16:12.918Z,26.10
2017-11-04T09:18:41.912Z,24.60
2017-11-04T09:21:11.598Z,26.13
2017-11-04T09:23:40.564Z,24.07
2017-11-04T09:26:09.516Z,26.33
2017-11-04T09:28:38.461Z,25.27
2017-11-04T09:31:08.203Z,25.77
2017-11-04T09:33:37.158Z,24.67
2017-11-04T09:36:06.570Z,23.83
2017-11-04T09:38:35.613Z,25.43
2017-11-04T09:41:04.544Z,22.50
2017-11-04T09:43:33.488Z,26.27
2017-11-04T09:46:02.474Z,23.63
2017-11-04T09:48:31.640Z,23.27
2017-11-04T09:51:00.584Z,23.80
2017-11-04T09:53:30.302Z,23.13
2017-11-04T09:55:59.622Z,25.13
2017-11-04T09:58:28.582Z,25.57
2017-11-04T10:00:58.287Z,25.50
2017-11-04T10:03:27.292Z,23.60
2017-11-04T10:05:56.609Z,23.63
2017-11-04T10:08:25.568Z,25.07
2017-11-04T10:10:55.259Z,21.53
2017-11-04T10:13:24.635Z,23.17
2017-11-04T10:15:53.563Z,23.70
2017-11-04T10:18:22.524Z,24.75
2017-11-04T10:20:51.492Z,22.93
2017-11-04T10:23:20.456Z,21.77
2017-11-04T10:25:50.162Z,21.30
2017-11-04T10:28:19.543Z,21.77
2017-11-04T10:30:48.472Z,22.73
2017-11-04T10:33:17.415Z,23.03
2017-11-04T10:35:46.393Z,22.23
2017-11-04T10:38:15.344Z,22.00
2017-11-04T10:40:44.308Z,22.03
2017-11-04T10:43:14.051Z,21.87
2017-11-04T10:45:43.446Z,22.53
2017-11-04T10:48:13.299Z,22.50
2017-11-04T10:50:42.247Z,21.77
2017-11-04T10:53:11.175Z,23.20
2017-11-04T10:55:40.135Z,21.70
2017-11-04T10:58:09.502Z,23.70
2017-11-04T11:00:39.264Z,21.13
2017-11-04T11:03:08.328Z,22.17
2017-11-04T11:05:37.299Z,20.93
2017-11-04T11:08:06.259Z,21.90
2017-11-04T11:10:35.197Z,20.27
2017-11-04T11:13:04.989Z,20.67
2017-11-04T11:15:33.996Z,20.90
2017-11-04T11:18:02.931Z,17.67
2017-11-04T11:20:31.889Z,21.13
2017-11-04T11:23:01.756Z,20.07
2017-11-04T11:25:30.699Z,21.80
2017-11-04T11:27:59.642Z,20.67
2017-11-04T11:30:28.585Z,22.77
2017-11-04T11:32:57.542Z,20.90
2017-11-04T11:35:26.497Z,21.43
2017-11-04T11:37:55.418Z,21.13
2017-11-04T11:40:25.213Z,20.70
2017-11-04T11:42:54.484Z,21.30
2017-11-04T11:45:23.655Z,20.67
2017-11-04T11:47:53.005Z,21.57
2017-11-04T11:50:21.969Z,20.60
2017-11-04T11:52:50.898Z,21.40
2017-11-04T11:55:19.904Z,19.80
2017-11-04T11:57:49.603Z,20.30
2017-11-04T12:00:18.620Z,17.90
2017-11-04T12:02:47.982Z,19.40
2017-11-04T12:05:16.952Z,18.87
2017-11-04T12:07:46.078Z,19.53
2017-11-04T12:10:15.183Z,18.10
2017-11-04T12:12:44.166Z,19.43
2017-11-04T12:15:13.244Z,19.10
2017-11-04T12:17:42.996Z,17.50
2017-11-04T12:20:12.595Z,19.57
2017-11-04T12:22:42.496Z,20.67
2017-11-04T12:25:11.675Z,20.90
2017-11-04T12:27:41.515Z,22.40
2017-11-04T12:30:11.265Z,23.27
2017-11-04T12:32:40.771Z,22.80
2017-11-04T12:35:09.772Z,21.37
2017-11-04T12:37:39.544Z,23.60
2017-11-04T12:40:08.775Z,21.50
2017-11-04T12:42:37.842Z,20.90
2017-11-04T12:45:06.843Z,21.13
2017-11-04T12:47:35.893Z,22.20
2017-11-04T12:50:05.697Z,21.50
2017-11-04T12:52:35.977Z,21.10
2017-11-04T12:55:05.122Z,22.37
2017-11-04T12:57:34.225Z,21.77
2017-11-04T13:00:03.271Z,22.13
2017-11-04T13:02:32.984Z,21.83
2017-11-04T13:05:02.007Z,21.30
2017-11-04T13:07:30.963Z,21.60
2017-11-04T13:09:59.904Z,21.50
2017-11-04T13:12:29.681Z,21.33
2017-11-04T13:14:58.643Z,21.23
2017-11-04T13:17:27.589Z,20.60
2017-11-04T13:19:57.319Z,20.90
2017-11-04T13:22:26.288Z,21.47
2017-11-04T13:24:56.026Z,19.33
2017-11-04T13:27:24.964Z,20.37
2017-11-04T13:29:53.969Z,21.67
2017-11-04T13:32:22.907Z,20.63
2017-11-04T13:34:51.838Z,20.70
2017-11-04T13:37:20.795Z,20.17
2017-11-04T13:39:49.756Z,22.73
2017-11-04T13:42:19.459Z,22.80
2017-11-04T13:44:48.682Z,20.97
2017-11-04T13:47:17.638Z,20.17
2017-11-04T13:49:46.644Z,22.17
2017-11-04T13:52:15.644Z,21.20
2017-11-04T13:54:44.575Z,21.30
2017-11-04T13:57:13.617Z,21.30
2017-11-04T13:59:43.315Z,24.23
2017-11-04T14:02:13.041Z,21.70
2017-11-04T14:04:42.739Z,22.17
2017-11-04T14:07:12.555Z,22.90
2017-11-04T14:09:41.596Z,23.40
2017-11-04T14:12:10.518Z,22.03
2017-11-04T14:14:39.495Z,22.90
2017-11-04T14:17:09.630Z,23.20
2017-11-04T14:19:39.369Z,24.27
2017-11-04T14:22:08.346Z,22.23
2017-11-04T14:24:37.674Z,23.53
2017-11-04T14:27:06.648Z,22.90
2017-11-04T14:29:35.600Z,21.27
2017-11-04T14:32:04.631Z,20.77
2017-11-04T14:34:33.599Z,21.40
2017-11-04T14:37:03.299Z,21.20
2017-11-04T14:39:32.281Z,21.43
2017-11-04T14:42:01.279Z,21.00
2017-11-04T14:44:30.212Z,20.20
2017-11-04T14:46:59.187Z,21.30
2017-11-04T14:49:28.180Z,20.23
2017-11-04T14:51:57.919Z,19.30
2017-11-04T14:54:28.112Z,21.50
2017-11-04T14:56:57.855Z,22.60
2017-11-04T14:59:26.793Z,21.87
2017-11-04T15:01:55.744Z,23.03
2017-11-04T15:04:24.691Z,23.80
2017-11-04T15:06:54.407Z,22.27
2017-11-04T15:09:23.358Z,22.00
2017-11-04T15:11:52.307Z,24.43
2017-11-04T15:14:21.307Z,22.50
2017-11-04T15:16:50.247Z,21.50
2017-11-04T15:19:19.177Z,22.33
2017-11-04T15:21:48.154Z,22.90
2017-11-04T15:24:17.115Z,22.87
2017-11-04T15:26:47.154Z,23.13
2017-11-04T15:29:16.500Z,22.20
2017-11-04T15:31:46.601Z,21.13
2017-11-04T15:34:17.359Z,22.70
2017-11-04T15:36:46.399Z,25.57
2017-11-04T15:39:15.920Z,23.03
2017-11-04T15:41:44.856Z,22.93
2017-11-04T15:44:13.822Z,23.53
2017-11-04T15:46:42.788Z,23.73
2017-11-04T15:49:11.764Z,25.40
2017-11-04T15:51:41.500Z,26.03
2017-11-04T15:54:10.437Z,25.17
2017-11-04T15:56:39.420Z,21.57
2017-11-04T15:59:09.907Z,26.43
2017-11-04T16:01:38.877Z,25.93
2017-11-04T16:04:08.599Z,24.00
2017-11-04T16:06:37.565Z,24.40
2017-11-04T16:09:06.520Z,24.67
2017-11-04T16:11:35.460Z,24.77
2017-11-04T16:14:04.476Z,24.10
2017-11-04T16:16:33.904Z,25.73
2017-11-04T16:19:03.288Z,26.27
2017-11-04T16:21:32.318Z,23.67
2017-11-04T16:24:01.252Z,24.40
2017-11-04T16:26:30.204Z,23.87
2017-11-04T16:28:59.627Z,27.90
2017-11-04T16:31:29.328Z,25.40
2017-11-04T16:33:59.061Z,24.73
2017-11-04T16:36:28.772Z,28.07
2017-11-04T16:38:57.745Z,29.47
2017-11-04T16:41:27.459Z,26.80
2017-11-04T16:43:56.848Z,27.67
2017-11-04T16:46:26.546Z,23.20
2017-11-04T16:48:55.496Z,24.30
2017-11-04T16:51:24.871Z,24.27
2017-11-04T16:53:54.572Z,23.10
2017-11-04T16:56:23.545Z,26.10
2017-11-04T16:58:53.263Z,25.60
2017-11-04T17:01:23.159Z,25.90
2017-11-04T17:03:52.132Z,25.67
2017-11-04T17:06:21.486Z,26.43
2017-11-04T17:08:51.212Z,25.70
2017-11-04T17:11:20.748Z,27.73
2017-11-04T17:13:49.774Z,29.03
2017-11-04T17:16:18.727Z,26.27
2017-11-04T17:18:47.652Z,27.37
2017-11-04T17:21:17.387Z,25.37
2017-11-04T17:23:46.325Z,25.40
2017-11-04T17:26:15.298Z,26.23
2017-11-04T17:28:44.239Z,27.47
2017-11-04T17:31:13.600Z,26.07
2017-11-04T17:33:42.534Z,24.60
2017-11-04T17:36:12.303Z,25.10
2017-11-04T17:38:41.229Z,25.13
2017-11-04T17:41:10.983Z,26.20
2017-11-04T17:43:40.312Z,26.37
2017-11-04T17:46:10.053Z,24.53
2017-11-04T17:48:39.791Z,25.30
2017-11-04T17:51:09.507Z,25.20
2017-11-04T17:53:38.469Z,25.53
2017-11-04T17:56:07.477Z,26.17
2017-11-04T17:58:36.460Z,25.80
2017-11-04T18:01:05.422Z,26.10
2017-11-04T18:03:35.131Z,27.93
2017-11-04T18:06:04.571Z,27.10
2017-11-04T18:08:34.422Z,26.40
2017-11-04T18:11:03.392Z,26.53
2017-11-04T18:13:32.332Z,26.60
2017-11-04T18:16:01.705Z,26.17
2017-11-04T18:18:30.647Z,28.10
2017-11-04T18:21:01.176Z,28.10
2017-11-04T18:23:30.501Z,28.43
2017-11-04T18:26:00.284Z,26.67
2017-11-04T18:28:29.618Z,27.70
2017-11-04T18:30:58.583Z,29.80
2017-11-04T18:33:27.538Z,31.40
2017-11-04T18:35:56.948Z,29.40
2017-11-04T18:38:26.654Z,26.33
2017-11-04T18:40:56.021Z,26.37
2017-11-04T18:43:24.989Z,27.17
2017-11-04T18:45:54.010Z,27.30
2017-11-04T18:48:24.482Z,28.00
2017-11-04T18:50:53.551Z,28.30
2017-11-04T18:53:23.273Z,28.60
2017-11-04T18:55:52.626Z,26.30
2017-11-04T18:58:22.362Z,26.67
2017-11-04T19:00:51.310Z,24.73
2017-11-04T19:03:20.689Z,26.93
2017-11-04T19:05:49.634Z,26.63
2017-11-04T19:08:18.653Z,24.50
2017-11-04T19:10:48.368Z,27.10
2017-11-04T19:13:17.327Z,26.43
2017-11-04T19:15:46.336Z,27.13
2017-11-04T19:18:16.083Z,26.17
2017-11-04T19:20:45.995Z,31.87
2017-11-04T19:23:14.957Z,32.47
2017-11-04T19:25:44.658Z,28.10
2017-11-04T19:28:14.451Z,26.80
2017-11-04T19:30:44.702Z,30.70
2017-11-04T19:33:13.668Z,29.67
2017-11-04T19:35:42.599Z,26.87
2017-11-04T19:38:11.613Z,26.30
2017-11-04T19:40:41.387Z,27.03
2017-11-04T19:43:10.734Z,26.07
2017-11-04T19:45:39.663Z,28.23
2017-11-04T19:48:09.440Z,26.67
2017-11-04T19:50:39.792Z,27.23
2017-11-04T19:53:08.745Z,26.90
2017-11-04T19:55:37.732Z,26.97
2017-11-04T19:58:06.752Z,28.47
2017-11-04T20:00:36.059Z,27.50
2017-11-04T20:03:05.405Z,27.80
2017-11-04T20:05:34.338Z,26.90
2017-11-04T20:08:03.332Z,26.83
2017-11-04T20:10:32.302Z,27.10
2017-11-04T20:13:02.058Z,26.87
2017-11-04T20:15:31.004Z,30.00
2017-11-04T20:18:00.782Z,27.40
2017-11-04T20:20:29.812Z,28.33
2017-11-04T20:22:58.800Z,29.13
2017-11-04T20:25:28.519Z,28.40
2017-11-04T20:27:57.515Z,28.33
2017-11-04T20:30:26.866Z,28.10
2017-11-04T20:32:56.633Z,29.70
2017-11-04T20:35:26.215Z,28.37
2017-11-04T20:37:55.194Z,28.87
2017-11-04T20:40:24.554Z,29.43
2017-11-04T20:42:54.328Z,29.90
2017-11-04T20:45:23.281Z,30.60
2017-11-04T20:47:53.533Z,30.27
2017-11-04T20:50:22.531Z,28.43
2017-11-04T20:52:51.503Z,29.40
2017-11-04T20:55:20.508Z,29.10
2017-11-04T20:57:49.495Z,29.53
2017-11-04T21:00:18.547Z,29.40
2017-11-04T21:02:48.332Z,29.70
2017-11-04T21:05:17.331Z,28.73
2017-11-04T21:07:46.332Z,27.00
2017-11-04T21:10:15.319Z,27.70
2017-11-04T21:12:44.299Z,28.70
2017-11-04T21:15:14.120Z,29.13
2017-11-04T21:17:43.107Z,27.67
2017-11-04T21:20:12.859Z,28.60
2017-11-04T21:22:41.860Z,29.23
2017-11-04T21:25:10.814Z,29.10
2017-11-04T21:27:40.566Z,26.87
2017-11-04T21:30:09.517Z,26.17
2017-11-04T21:32:39.232Z,28.77
2017-11-04T21:35:08.613Z,27.30
2017-11-04T21:37:37.578Z,26.63
2017-11-04T21:40:06.539Z,27.17
2017-11-04T21:42:35.531Z,25.40
2017-11-04T21:45:04.477Z,25.47
2017-11-04T21:47:33.514Z,26.13
2017-11-04T21:50:02.461Z,27.00
2017-11-04T21:52:32.197Z,26.90
2017-11-04T21:55:01.558Z,26.27
2017-11-04T21:57:30.603Z,25.53
2017-11-04T21:59:59.744Z,26.17
2017-11-04T22:02:29.494Z,25.83
2017-11-04T22:04:58.841Z,25.43
2017-11-04T22:07:27.805Z,26.43
2017-11-04T22:09:56.733Z,24.10
2017-11-04T22:12:25.735Z,24.90
2017-11-04T22:14:54.666Z,24.63
2017-11-04T22:17:23.648Z,24.60
2017-11-04T22:19:53.833Z,24.47
2017-11-04T22:22:23.606Z,24.10
2017-11-04T22:24:52.552Z,24.60
2017-11-04T22:27:21.573Z,23.03
2017-11-04T22:29:50.537Z,22.30
2017-11-04T22:32:19.946Z,21.83
2017-11-04T22:34:49.704Z,21.97
2017-11-04T22:37:18.743Z,20.70
2017-11-04T22:39:48.484Z,22.23
2017-11-04T22:42:17.451Z,21.63
2017-11-04T22:44:46.460Z,22.70
2017-11-04T22:47:15.490Z,22.53
2017-11-04T22:49:44.412Z,20.60
2017-11-04T22:52:14.146Z,22.67
2017-11-04T22:54:43.483Z,20.20
2017-11-04T22:57:12.436Z,20.80
2017-11-04T22:59:41.377Z,20.93
2017-11-04T23:02:10.439Z,22.20
2017-11-04T23:04:39.385Z,22.20
2017-11-04T23:07:08.337Z,22.77
2017-11-04T23:09:37.308Z,22.67
2017-11-04T23:12:06.734Z,23.80
2017-11-04T23:14:36.478Z,23.53
2017-11-04T23:17:05.446Z,22.60
2017-11-04T23:19:34.407Z,22.37
2017-11-04T23:22:04.504Z,17.07
2017-11-04T23:24:33.463Z,15.37
2017-11-04T23:27:03.192Z,19.03
2017-11-04T23:29:32.973Z,17.43
2017-11-04T23:32:03.475Z,19.53
2017-11-04T23:34:32.506Z,19.73
2017-11-04T23:37:01.465Z,20.00
2017-11-04T23:39:30.454Z,18.87
2017-11-04T23:41:59.396Z,20.90
2017-11-04T23:44:28.745Z,23.97
2017-11-04T23:46:58.462Z,23.13
2017-11-04T23:49:27.441Z,18.97
2017-11-04T23:51:56.402Z,21.70
2017-11-04T23:54:25.371Z,19.37
2017-11-04T23:56:55.058Z,18.47
2017-11-04T23:59:24.057Z,18.40
